Kezdőlap
METAR-TAF:

METAR-TAF

Repülőterek :

Curaçao, Holland Antillák

földrajzi szélesség: 12-12N, földrajzi hosszúság: 068-58W, magasság: 9 m

Jelenlegi meteorológiai megfigyelések

A jelentés 51 perccel ezelõtt készült, 10:00 UTC
Kelet-délkeleti szél 7 kt
Hőmérséklet 28°C
Páratartalom 84%
Légköri nyomás 1011 hPa
Látótávolság 10 km, vagy több
Kevés felhő 1700 lábon

METAR: TNCC 251000Z 12007KT 9999 FEW017 28/25 Q1011 NOSIG

Idő: 06:51 (10:51 UTC)

Előrejelzés

A jelentés 5 órával és 36 perccel ezelõtt készült, 05:15 UTC
Az előrejelzés 25-én 06 óra UTC és 26-én 06 óra UTC között érvényes
Keleti szél 10 kt
Látótávolság 10 km, vagy több
Szórványos felhőzet 2000 lábon

TAF: TNCC 250515Z 2506/2606 09010KT 9999 SCT020

Meteorológiai megfigyelések és előrejelzések több, mint 4000 repülőtéren (METAR és TAF jelentéseket).

A térképen piros és sárga pontok jelzik az elérhető meteorológiai állomásokat.

Mozgassa az egeret a pont fölött, hogy megjelenjen az állomás neve.

Azután kattintson az időjárási megfigyelések és előrejelzések megtekintéséhez.

A térkép megváltoztatása: kattintson a fekete keresztel jelölt zöld gombra ráközelítéshez, a vonallal jelölt zöld gombra távolításhoz, vagy a zöld nyilakra a szomszédos térképek eléréséhez.


METAR-TAF: